sensor_id;sensor_type;location;lat;lon;timestamp;pressure;altitude;pressure_sealevel;temperature;humidity
54978;BME280;40873;47.522;19.106;2022-11-24T00:01:17;99261.44;;;5.06;100.00
54978;BME280;40873;47.522;19.106;2022-11-24T00:03:50;99263.38;;;5.18;100.00
54978;BME280;40873;47.522;19.106;2022-11-24T00:06:17;99257.97;;;5.05;100.00
54978;BME280;40873;47.522;19.106;2022-11-24T00:08:45;99259.84;;;5.03;100.00
54978;BME280;40873;47.522;19.106;2022-11-24T00:11:14;99263.28;;;4.88;100.00
54978;BME280;40873;47.522;19.106;2022-11-24T00:13:44;99257.56;;;4.81;100.00
54978;BME280;40873;47.522;19.106;2022-11-24T00:16:25;99263.75;;;4.79;100.00
54978;BME280;40873;47.522;19.106;2022-11-24T00:18:55;99263.25;;;4.72;100.00
54978;BME280;40873;47.522;19.106;2022-11-24T00:21:23;99262.78;;;4.81;100.00
54978;BME280;40873;47.522;19.106;2022-11-24T00:23:51;99269.00;;;4.79;100.00
54978;BME280;40873;47.522;19.106;2022-11-24T00:26:21;99277.84;;;4.76;100.00
54978;BME280;40873;47.522;19.106;2022-11-24T00:28:50;99273.13;;;4.83;100.00
54978;BME280;40873;47.522;19.106;2022-11-24T00:31:23;99271.53;;;4.80;100.00
54978;BME280;40873;47.522;19.106;2022-11-24T00:33:52;99279.00;;;4.71;100.00
54978;BME280;40873;47.522;19.106;2022-11-24T00:36:21;99271.03;;;4.74;100.00
54978;BME280;40873;47.522;19.106;2022-11-24T00:38:57;99283.56;;;4.67;100.00
54978;BME280;40873;47.522;19.106;2022-11-24T00:41:24;99288.81;;;4.67;100.00
54978;BME280;40873;47.522;19.106;2022-11-24T00:43:52;99292.06;;;4.71;100.00
54978;BME280;40873;47.522;19.106;2022-11-24T00:46:19;99292.16;;;4.69;100.00
54978;BME280;40873;47.522;19.106;2022-11-24T00:48:47;99299.41;;;4.64;100.00
54978;BME280;40873;47.522;19.106;2022-11-24T00:51:16;99299.69;;;4.75;100.00
54978;BME280;40873;47.522;19.106;2022-11-24T00:53:46;99303.13;;;4.76;100.00
54978;BME280;40873;47.522;19.106;2022-11-24T00:56:13;99298.84;;;4.75;100.00
54978;BME280;40873;47.522;19.106;2022-11-24T00:58:40;99308.44;;;4.74;100.00
54978;BME280;40873;47.522;19.106;2022-11-24T01:01:10;99308.44;;;4.74;100.00
54978;BME280;40873;47.522;19.106;2022-11-24T01:03:38;99301.53;;;4.73;100.00
54978;BME280;40873;47.522;19.106;2022-11-24T01:06:07;99302.91;;;4.80;100.00
54978;BME280;40873;47.522;19.106;2022-11-24T01:08:36;99301.97;;;4.81;100.00
54978;BME280;40873;47.522;19.106;2022-11-24T01:11:17;99304.72;;;4.78;100.00
54978;BME280;40873;47.522;19.106;2022-11-24T01:13:47;99305.66;;;4.77;100.00
54978;BME280;40873;47.522;19.106;2022-11-24T01:16:20;99303.66;;;4.82;100.00
54978;BME280;40873;47.522;19.106;2022-11-24T01:18:48;99310.75;;;4.80;100.00
54978;BME280;40873;47.522;19.106;2022-11-24T01:21:15;99304.38;;;4.68;100.00
54978;BME280;40873;47.522;19.106;2022-11-24T01:23:43;99311.47;;;4.66;100.00
54978;BME280;40873;47.522;19.106;2022-11-24T01:26:13;99318.69;;;4.61;100.00
54978;BME280;40873;47.522;19.106;2022-11-24T01:28:40;99313.06;;;4.69;100.00
54978;BME280;40873;47.522;19.106;2022-11-24T01:31:14;99315.34;;;4.75;100.00
54978;BME280;40873;47.522;19.106;2022-11-24T01:33:42;99308.38;;;4.76;100.00
54978;BME280;40873;47.522;19.106;2022-11-24T01:36:09;99315.28;;;4.77;100.00
54978;BME280;40873;47.522;19.106;2022-11-24T01:38:36;99311.81;;;4.76;100.00
54978;BME280;40873;47.522;19.106;2022-11-24T01:43:34;99313.72;;;4.73;100.00
54978;BME280;40873;47.522;19.106;2022-11-24T01:46:13;99317.69;;;4.64;100.00
54978;BME280;40873;47.522;19.106;2022-11-24T01:48:46;99318.22;;;4.71;100.00
54978;BME280;40873;47.522;19.106;2022-11-24T01:51:22;99322.06;;;4.63;100.00
54978;BME280;40873;47.522;19.106;2022-11-24T01:53:55;99321.91;;;4.66;100.00
54978;BME280;40873;47.522;19.106;2022-11-24T01:56:24;99325.19;;;4.70;100.00
54978;BME280;40873;47.522;19.106;2022-11-24T01:58:56;99320.06;;;4.68;100.00
54978;BME280;40873;47.522;19.106;2022-11-24T02:01:24;99327.16;;;4.66;100.00
54978;BME280;40873;47.522;19.106;2022-11-24T02:03:52;99322.59;;;4.70;100.00
54978;BME280;40873;47.522;19.106;2022-11-24T02:06:23;99325.38;;;4.67;100.00
54978;BME280;40873;47.522;19.106;2022-11-24T02:08:57;99328.84;;;4.67;100.00
54978;BME280;40873;47.522;19.106;2022-11-24T02:11:29;99328.84;;;4.67;100.00
54978;BME280;40873;47.522;19.106;2022-11-24T02:13:59;99322.91;;;4.64;100.00
54978;BME280;40873;47.522;19.106;2022-11-24T02:16:26;99321.22;;;4.63;100.00
54978;BME280;40873;47.522;19.106;2022-11-24T02:18:54;99322.75;;;4.67;100.00
54978;BME280;40873;47.522;19.106;2022-11-24T02:21:21;99327.28;;;4.63;100.00
54978;BME280;40873;47.522;19.106;2022-11-24T02:29:03;99329.41;;;4.73;100.00
54978;BME280;40873;47.522;19.106;2022-11-24T02:31:30;99319.31;;;4.66;100.00
54978;BME280;40873;47.522;19.106;2022-11-24T02:33:57;99322.28;;;4.59;100.00
54978;BME280;40873;47.522;19.106;2022-11-24T02:36:24;99321.41;;;4.60;100.00
54978;BME280;40873;47.522;19.106;2022-11-24T02:38:51;99322.34;;;4.75;100.00
54978;BME280;40873;47.522;19.106;2022-11-24T02:41:20;99321.09;;;4.66;100.00
54978;BME280;40873;47.522;19.106;2022-11-24T02:43:52;99326.38;;;4.64;100.00
54978;BME280;40873;47.522;19.106;2022-11-24T02:46:20;99326.31;;;4.49;100.00
54978;BME280;40873;47.522;19.106;2022-11-24T02:48:47;99321.63;;;4.55;100.00
54978;BME280;40873;47.522;19.106;2022-11-24T02:51:14;99326.16;;;4.52;100.00
54978;BME280;40873;47.522;19.106;2022-11-24T02:53:41;99324.47;;;4.51;100.00
54978;BME280;40873;47.522;19.106;2022-11-24T02:56:08;99329.63;;;4.52;100.00
54978;BME280;40873;47.522;19.106;2022-11-24T02:58:35;99322.28;;;4.59;100.00
54978;BME280;40873;47.522;19.106;2022-11-24T03:01:02;99331.09;;;4.40;100.00
54978;BME280;40873;47.522;19.106;2022-11-24T03:03:30;99327.97;;;4.34;100.00
54978;BME280;40873;47.522;19.106;2022-11-24T03:05:56;99328.03;;;4.32;100.00
54978;BME280;40873;47.522;19.106;2022-11-24T03:08:23;99328.81;;;4.34;100.00
54978;BME280;40873;47.522;19.106;2022-11-24T03:10:50;99333.78;;;4.22;100.00
54978;BME280;40873;47.522;19.106;2022-11-24T03:13:17;99335.72;;;4.18;100.00
54978;BME280;40873;47.522;19.106;2022-11-24T03:15:44;99340.94;;;4.18;100.00
54978;BME280;40873;47.522;19.106;2022-11-24T03:18:11;99345.00;;;4.24;100.00
54978;BME280;40873;47.522;19.106;2022-11-24T03:20:38;99343.84;;;4.29;100.00
54978;BME280;40873;47.522;19.106;2022-11-24T03:23:05;99350.69;;;4.15;100.00
54978;BME280;40873;47.522;19.106;2022-11-24T03:25:32;99353.91;;;4.20;100.00
54978;BME280;40873;47.522;19.106;2022-11-24T03:27:59;99351.44;;;4.17;100.00
54978;BME280;40873;47.522;19.106;2022-11-24T03:30:26;99352.44;;;4.14;100.00
54978;BME280;40873;47.522;19.106;2022-11-24T03:32:53;99353.00;;;4.21;100.00
54978;BME280;40873;47.522;19.106;2022-11-24T03:35:20;99358.38;;;4.18;100.00
54978;BME280;40873;47.522;19.106;2022-11-24T03:37:47;99358.44;;;4.16;100.00
54978;BME280;40873;47.522;19.106;2022-11-24T03:40:15;99359.59;;;4.10;100.00
54978;BME280;40873;47.522;19.106;2022-11-24T03:42:43;99358.81;;;4.08;100.00
54978;BME280;40873;47.522;19.106;2022-11-24T03:45:10;99361.50;;;4.07;100.00
54978;BME280;40873;47.522;19.106;2022-11-24T03:47:57;99359.53;;;4.12;100.00
54978;BME280;40873;47.522;19.106;2022-11-24T03:50:24;99363.91;;;4.11;100.00
54978;BME280;40873;47.522;19.106;2022-11-24T03:52:51;99371.09;;;4.06;100.00
54978;BME280;40873;47.522;19.106;2022-11-24T03:55:17;99373.09;;;4.01;100.00
54978;BME280;40873;47.522;19.106;2022-11-24T03:57:45;99371.28;;;4.03;100.00
54978;BME280;40873;47.522;19.106;2022-11-24T04:00:12;99377.25;;;4.05;100.00
54978;BME280;40873;47.522;19.106;2022-11-24T04:02:39;99376.63;;;4.00;100.00
54978;BME280;40873;47.522;19.106;2022-11-24T04:05:06;99370.34;;;4.04;100.00
54978;BME280;40873;47.522;19.106;2022-11-24T04:07:33;99372.72;;;4.09;100.00
54978;BME280;40873;47.522;19.106;2022-11-24T04:10:00;99372.66;;;4.10;100.00
54978;BME280;40873;47.522;19.106;2022-11-24T04:12:27;99372.41;;;3.98;100.00
54978;BME280;40873;47.522;19.106;2022-11-24T04:15:11;99371.03;;;3.91;100.00
54978;BME280;40873;47.522;19.106;2022-11-24T04:17:38;99378.50;;;3.79;100.00
54978;BME280;40873;47.522;19.106;2022-11-24T04:20:06;99378.50;;;3.79;100.00
54978;BME280;40873;47.522;19.106;2022-11-24T04:22:33;99382.69;;;3.83;100.00
54978;BME280;40873;47.522;19.106;2022-11-24T04:25:01;99382.50;;;3.87;100.00
54978;BME280;40873;47.522;19.106;2022-11-24T04:27:29;99397.53;;;3.81;100.00
54978;BME280;40873;47.522;19.106;2022-11-24T04:29:55;99390.50;;;3.83;100.00
54978;BME280;40873;47.522;19.106;2022-11-24T04:32:23;99396.69;;;3.81;100.00
54978;BME280;40873;47.522;19.106;2022-11-24T04:34:49;99401.22;;;3.77;100.00
54978;BME280;40873;47.522;19.106;2022-11-24T04:37:16;99400.16;;;3.81;100.00
54978;BME280;40873;47.522;19.106;2022-11-24T04:39:43;99411.66;;;3.77;100.00
54978;BME280;40873;47.522;19.106;2022-11-24T04:42:12;99407.00;;;3.65;100.00
54978;BME280;40873;47.522;19.106;2022-11-24T04:44:39;99405.47;;;3.61;100.00
54978;BME280;40873;47.522;19.106;2022-11-24T04:47:06;99411.22;;;3.68;100.00
54978;BME280;40873;47.522;19.106;2022-11-24T04:49:32;99412.63;;;3.75;100.00
54978;BME280;40873;47.522;19.106;2022-11-24T04:51:59;99416.16;;;3.74;100.00
54978;BME280;40873;47.522;19.106;2022-11-24T04:54:26;99413.72;;;3.71;100.00
54978;BME280;40873;47.522;19.106;2022-11-24T04:56:53;99409.84;;;3.61;100.00
54978;BME280;40873;47.522;19.106;2022-11-24T04:59:20;99423.09;;;3.56;100.00
54978;BME280;40873;47.522;19.106;2022-11-24T05:01:47;99435.78;;;3.64;100.00
54978;BME280;40873;47.522;19.106;2022-11-24T05:04:14;99434.22;;;3.60;100.00
54978;BME280;40873;47.522;19.106;2022-11-24T05:06:42;99434.66;;;3.50;100.00
54978;BME280;40873;47.522;19.106;2022-11-24T05:09:13;99450.50;;;3.46;100.00
54978;BME280;40873;47.522;19.106;2022-11-24T05:11:40;99444.53;;;3.44;100.00
54978;BME280;40873;47.522;19.106;2022-11-24T05:14:07;99447.31;;;3.39;100.00
54978;BME280;40873;47.522;19.106;2022-11-24T05:16:34;99448.75;;;3.46;100.00
54978;BME280;40873;47.522;19.106;2022-11-24T05:19:02;99461.84;;;3.45;100.00
54978;BME280;40873;47.522;19.106;2022-11-24T05:21:29;99456.78;;;3.42;100.00
54978;BME280;40873;47.522;19.106;2022-11-24T05:23:56;99462.00;;;3.42;100.00
54978;BME280;40873;47.522;19.106;2022-11-24T05:26:24;99469.41;;;3.51;100.00
54978;BME280;40873;47.522;19.106;2022-11-24T05:28:51;99471.84;;;3.54;100.00
54978;BME280;40873;47.522;19.106;2022-11-24T05:31:18;99470.59;;;3.44;100.00
54978;BME280;40873;47.522;19.106;2022-11-24T05:33:45;99465.03;;;3.51;100.00
54978;BME280;40873;47.522;19.106;2022-11-24T05:36:12;99473.22;;;3.44;100.00
54978;BME280;40873;47.522;19.106;2022-11-24T05:38:59;99475.66;;;3.47;100.00
54978;BME280;40873;47.522;19.106;2022-11-24T05:41:27;99477.91;;;3.54;100.00
54978;BME280;40873;47.522;19.106;2022-11-24T05:43:53;99482.94;;;3.59;100.00
54978;BME280;40873;47.522;19.106;2022-11-24T05:46:21;99477.88;;;3.56;100.00
54978;BME280;40873;47.522;19.106;2022-11-24T05:48:48;99476.81;;;3.60;100.00
54978;BME280;40873;47.522;19.106;2022-11-24T05:51:15;99491.25;;;3.67;100.00
54978;BME280;40873;47.522;19.106;2022-11-24T05:53:42;99496.19;;;3.73;100.00
54978;BME280;40873;47.522;19.106;2022-11-24T05:56:09;99477.72;;;3.78;100.00
54978;BME280;40873;47.522;19.106;2022-11-24T05:58:36;99494.34;;;3.75;100.00
54978;BME280;40873;47.522;19.106;2022-11-24T06:01:06;99490.06;;;3.74;100.00
54978;BME280;40873;47.522;19.106;2022-11-24T06:03:33;99499.38;;;3.80;100.00
54978;BME280;40873;47.522;19.106;2022-11-24T06:06:00;99494.78;;;3.85;100.00
54978;BME280;40873;47.522;19.106;2022-11-24T06:08:27;99500.84;;;3.85;100.00
54978;BME280;40873;47.522;19.106;2022-11-24T06:11:00;99500.84;;;3.85;100.00
54978;BME280;40873;47.522;19.106;2022-11-24T06:13:44;99508.53;;;3.89;100.00
54978;BME280;40873;47.522;19.106;2022-11-24T06:16:12;99509.44;;;3.88;100.00
54978;BME280;40873;47.522;19.106;2022-11-24T06:18:38;99520.72;;;3.88;100.00
54978;BME280;40873;47.522;19.106;2022-11-24T06:21:06;99515.59;;;3.87;100.00
54978;BME280;40873;47.522;19.106;2022-11-24T06:23:38;99513.81;;;3.87;100.00
54978;BME280;40873;47.522;19.106;2022-11-24T06:26:05;99523.13;;;3.93;100.00
54978;BME280;40873;47.522;19.106;2022-11-24T06:28:32;99522.22;;;3.94;100.00
54978;BME280;40873;47.522;19.106;2022-11-24T06:31:01;99524.06;;;3.92;100.00
54978;BME280;40873;47.522;19.106;2022-11-24T06:33:32;99517.75;;;3.96;100.00
54978;BME280;40873;47.522;19.106;2022-11-24T06:36:05;99526.09;;;4.04;100.00
54978;BME280;40873;47.522;19.106;2022-11-24T06:38:34;99539.84;;;4.07;100.00
54978;BME280;40873;47.522;19.106;2022-11-24T06:41:03;99538.91;;;4.08;100.00
54978;BME280;40873;47.522;19.106;2022-11-24T06:43:32;99533.94;;;4.04;100.00
54978;BME280;40873;47.522;19.106;2022-11-24T06:46:00;99541.41;;;4.11;100.00
54978;BME280;40873;47.522;19.106;2022-11-24T06:48:28;99542.16;;;4.13;100.00
54978;BME280;40873;47.522;19.106;2022-11-24T06:51:00;99542.16;;;4.13;100.00
54978;BME280;40873;47.522;19.106;2022-11-24T06:53:32;99528.97;;;4.17;100.00
54978;BME280;40873;47.522;19.106;2022-11-24T06:56:05;99547.88;;;4.22;100.00
54978;BME280;40873;47.522;19.106;2022-11-24T06:58:41;99558.19;;;4.25;100.00
54978;BME280;40873;47.522;19.106;2022-11-24T07:01:12;99552.97;;;4.25;100.00
54978;BME280;40873;47.522;19.106;2022-11-24T07:03:39;99566.59;;;4.31;100.00
54978;BME280;40873;47.522;19.106;2022-11-24T07:06:06;99567.72;;;4.26;100.00
54978;BME280;40873;47.522;19.106;2022-11-24T07:08:33;99567.91;;;4.21;100.00
54978;BME280;40873;47.522;19.106;2022-11-24T07:11:08;99570.94;;;4.31;100.00
54978;BME280;40873;47.522;19.106;2022-11-24T07:13:35;99575.03;;;4.36;100.00
54978;BME280;40873;47.522;19.106;2022-11-24T07:16:17;99577.78;;;4.33;100.00
54978;BME280;40873;47.522;19.106;2022-11-24T07:18:46;99589.16;;;4.13;100.00
54978;BME280;40873;47.522;19.106;2022-11-24T07:21:14;99589.84;;;4.17;100.00
54978;BME280;40873;47.522;19.106;2022-11-24T07:23:41;99583.66;;;4.20;100.00
54978;BME280;40873;47.522;19.106;2022-11-24T07:26:09;99584.72;;;4.16;100.00
54978;BME280;40873;47.522;19.106;2022-11-24T07:28:36;99589.81;;;4.19;100.00
54978;BME280;40873;47.522;19.106;2022-11-24T07:31:08;99601.78;;;4.23;100.00
54978;BME280;40873;47.522;19.106;2022-11-24T07:33:36;99594.59;;;4.64;100.00
54978;BME280;40873;47.522;19.106;2022-11-24T07:36:04;99603.25;;;4.66;100.00
54978;BME280;40873;47.522;19.106;2022-11-24T07:38:33;99602.50;;;4.81;100.00
54978;BME280;40873;47.522;19.106;2022-11-24T07:41:02;99602.91;;;4.55;100.00
54978;BME280;40873;47.522;19.106;2022-11-24T07:43:30;99598.72;;;4.51;100.00
54978;BME280;40873;47.522;19.106;2022-11-24T07:45:58;99604.78;;;4.51;100.00
54978;BME280;40873;47.522;19.106;2022-11-24T07:48:26;99614.03;;;4.58;100.00
54978;BME280;40873;47.522;19.106;2022-11-24T07:50:53;99602.69;;;4.59;100.00
54978;BME280;40873;47.522;19.106;2022-11-24T07:53:21;99597.47;;;4.59;100.00
54978;BME280;40873;47.522;19.106;2022-11-24T07:55:53;99606.28;;;4.57;100.00
54978;BME280;40873;47.522;19.106;2022-11-24T07:58:21;99602.44;;;4.64;100.00
54978;BME280;40873;47.522;19.106;2022-11-24T08:00:48;99611.66;;;4.54;100.00
54978;BME280;40873;47.522;19.106;2022-11-24T08:03:15;99606.28;;;4.57;100.00
54978;BME280;40873;47.522;19.106;2022-11-24T08:05:42;99614.28;;;4.54;100.00
54978;BME280;40873;47.522;19.106;2022-11-24T08:08:30;99612.72;;;4.50;100.00
54978;BME280;40873;47.522;19.106;2022-11-24T08:11:05;99619.34;;;4.57;100.00
54978;BME280;40873;47.522;19.106;2022-11-24T08:13:33;99621.25;;;4.53;100.00
54978;BME280;40873;47.522;19.106;2022-11-24T08:16:08;99623.59;;;4.59;100.00
54978;BME280;40873;47.522;19.106;2022-11-24T08:18:37;99631.66;;;4.72;100.00
54978;BME280;40873;47.522;19.106;2022-11-24T08:21:05;99628.50;;;4.65;100.00
54978;BME280;40873;47.522;19.106;2022-11-24T08:23:32;99634.34;;;4.71;100.00
54978;BME280;40873;47.522;19.106;2022-11-24T08:26:07;99632.81;;;4.66;100.00
54978;BME280;40873;47.522;19.106;2022-11-24T08:28:36;99632.81;;;4.66;100.00
54978;BME280;40873;47.522;19.106;2022-11-24T08:31:07;99638.47;;;4.57;100.00
54978;BME280;40873;47.522;19.106;2022-11-24T08:33:35;99635.00;;;4.57;100.00
54978;BME280;40873;47.522;19.106;2022-11-24T08:36:08;99643.63;;;4.59;100.00
54978;BME280;40873;47.522;19.106;2022-11-24T08:38:35;99640.72;;;4.65;100.00
54978;BME280;40873;47.522;19.106;2022-11-24T08:41:07;99645.72;;;4.70;100.00
54978;BME280;40873;47.522;19.106;2022-11-24T08:43:35;99652.06;;;4.83;100.00
54978;BME280;40873;47.522;19.106;2022-11-24T08:46:08;99651.72;;;4.72;100.00
54978;BME280;40873;47.522;19.106;2022-11-24T08:48:36;99655.97;;;4.74;100.00
54978;BME280;40873;47.522;19.106;2022-11-24T08:51:11;99661.56;;;4.66;100.00
54978;BME280;40873;47.522;19.106;2022-11-24T08:53:39;99673.34;;;4.75;100.00
54978;BME280;40873;47.522;19.106;2022-11-24T08:56:07;99666.84;;;4.65;100.00
54978;BME280;40873;47.522;19.106;2022-11-24T08:58:35;99665.03;;;4.67;100.00
54978;BME280;40873;47.522;19.106;2022-11-24T09:01:10;99670.56;;;4.78;100.00
54978;BME280;40873;47.522;19.106;2022-11-24T09:03:38;99670.00;;;4.90;100.00
54978;BME280;40873;47.522;19.106;2022-11-24T09:06:12;99662.25;;;4.89;100.00
54978;BME280;40873;47.522;19.106;2022-11-24T09:08:39;99661.16;;;4.93;100.00
54978;BME280;40873;47.522;19.106;2022-11-24T09:11:09;99665.78;;;4.88;100.00
54978;BME280;40873;47.522;19.106;2022-11-24T09:13:37;99673.63;;;5.05;100.00
54978;BME280;40873;47.522;19.106;2022-11-24T09:16:06;99671.56;;;4.94;100.00
54978;BME280;40873;47.522;19.106;2022-11-24T09:18:34;99669.06;;;4.91;100.00
54978;BME280;40873;47.522;19.106;2022-11-24T09:21:10;99665.81;;;4.86;100.00
54978;BME280;40873;47.522;19.106;2022-11-24T09:23:37;99669.50;;;5.01;100.00
54978;BME280;40873;47.522;19.106;2022-11-24T09:26:10;99663.81;;;5.10;100.00
54978;BME280;40873;47.522;19.106;2022-11-24T09:28:37;99669.72;;;4.97;100.00
54978;BME280;40873;47.522;19.106;2022-11-24T09:31:07;99683.81;;;5.11;100.00
54978;BME280;40873;47.522;19.106;2022-11-24T09:33:35;99682.13;;;5.10;100.00
54978;BME280;40873;47.522;19.106;2022-11-24T09:36:03;99672.88;;;5.20;100.00
54978;BME280;40873;47.522;19.106;2022-11-24T09:38:30;99672.91;;;5.38;100.00
54978;BME280;40873;47.522;19.106;2022-11-24T09:49:42;99670.75;;;5.81;100.00
54978;BME280;40873;47.522;19.106;2022-11-24T09:52:21;99669.53;;;5.70;100.00
54978;BME280;40873;47.522;19.106;2022-11-24T09:54:57;99672.44;;;5.82;100.00
54978;BME280;40873;47.522;19.106;2022-11-24T09:57:28;99677.69;;;5.99;100.00
54978;BME280;40873;47.522;19.106;2022-11-24T10:00:10;99675.50;;;6.07;100.00
54978;BME280;40873;47.522;19.106;2022-11-24T10:02:38;99676.41;;;5.89;100.00
54978;BME280;40873;47.522;19.106;2022-11-24T10:05:05;99681.81;;;5.86;100.00
54978;BME280;40873;47.522;19.106;2022-11-24T10:08:06;99679.81;;;5.91;100.00
54978;BME280;40873;47.522;19.106;2022-11-24T10:10:38;99686.38;;;5.99;100.00
54978;BME280;40873;47.522;19.106;2022-11-24T10:13:27;99678.19;;;5.88;100.00
54978;BME280;40873;47.522;19.106;2022-11-24T10:16:14;99681.81;;;5.86;100.00
54978;BME280;40873;47.522;19.106;2022-11-24T10:21:57;99689.22;;;5.77;100.00
54978;BME280;40873;47.522;19.106;2022-11-24T10:25:34;99684.69;;;5.64;100.00
54978;BME280;40873;47.522;19.106;2022-11-24T10:27:41;99682.59;;;5.53;100.00
54978;BME280;40873;47.522;19.106;2022-11-24T10:30:19;99676.22;;;5.41;100.00
54978;BME280;40873;47.522;19.106;2022-11-24T10:32:48;99683.22;;;5.41;100.00
54978;BME280;40873;47.522;19.106;2022-11-24T10:35:22;99674.97;;;5.48;100.00
54978;BME280;40873;47.522;19.106;2022-11-24T10:37:56;99687.00;;;5.53;100.00
54978;BME280;40873;47.522;19.106;2022-11-24T10:40:37;99693.06;;;5.53;100.00
54978;BME280;40873;47.522;19.106;2022-11-24T10:43:25;99693.91;;;5.54;100.00
54978;BME280;40873;47.522;19.106;2022-11-24T10:45:54;99696.53;;;5.54;100.00
54978;BME280;40873;47.522;19.106;2022-11-24T10:48:27;99699.47;;;5.65;100.00
54978;BME280;40873;47.522;19.106;2022-11-24T10:51:10;99701.38;;;5.61;100.00
54978;BME280;40873;47.522;19.106;2022-11-24T10:53:43;99695.69;;;5.53;100.00
54978;BME280;40873;47.522;19.106;2022-11-24T10:56:11;99700.31;;;5.65;100.00
54978;BME280;40873;47.522;19.106;2022-11-24T10:58:38;99705.28;;;5.70;100.00
54978;BME280;40873;47.522;19.106;2022-11-24T11:03:48;99713.56;;;5.80;100.00
54978;BME280;40873;47.522;19.106;2022-11-24T11:06:27;99711.38;;;5.88;100.00
54978;BME280;40873;47.522;19.106;2022-11-24T11:09:23;99715.41;;;5.77;100.00
54978;BME280;40873;47.522;19.106;2022-11-24T11:11:52;99720.66;;;5.95;100.00
54978;BME280;40873;47.522;19.106;2022-11-24T11:14:31;99728.09;;;6.02;100.00
54978;BME280;40873;47.522;19.106;2022-11-24T11:16:58;99724.41;;;6.07;100.00
54978;BME280;40873;47.522;19.106;2022-11-24T11:19:33;99731.47;;;6.22;100.00
54978;BME280;40873;47.522;19.106;2022-11-24T11:22:29;99727.50;;;6.30;100.00
54978;BME280;40873;47.522;19.106;2022-11-24T11:27:29;99733.59;;;6.31;100.00
54978;BME280;40873;47.522;19.106;2022-11-24T11:30:22;99737.00;;;6.33;100.00
54978;BME280;40873;47.522;19.106;2022-11-24T11:33:25;99739.38;;;6.38;100.00
54978;BME280;40873;47.522;19.106;2022-11-24T11:36:14;99742.75;;;6.40;100.00
54978;BME280;40873;47.522;19.106;2022-11-24T11:38:42;99740.41;;;6.51;100.00
54978;BME280;40873;47.522;19.106;2022-11-24T11:41:18;99746.59;;;6.50;100.00
54978;BME280;40873;47.522;19.106;2022-11-24T11:43:51;99753.72;;;6.64;100.00
54978;BME280;40873;47.522;19.106;2022-11-24T11:46:23;99757.19;;;6.64;100.00
54978;BME280;40873;47.522;19.106;2022-11-24T11:48:54;99754.00;;;6.75;100.00
54978;BME280;40873;47.522;19.106;2022-11-24T11:57:36;99751.53;;;6.72;100.00
54978;BME280;40873;47.522;19.106;2022-11-24T12:00:19;99751.38;;;6.75;100.00
54978;BME280;40873;47.522;19.106;2022-11-24T12:08:22;99752.22;;;6.91;98.71
54978;BME280;40873;47.522;19.106;2022-11-24T12:11:23;99757.13;;;7.13;99.05
54978;BME280;40873;47.522;19.106;2022-11-24T12:19:16;99743.72;;;7.33;97.14
54978;BME280;40873;47.522;19.106;2022-11-24T12:21:55;99741.91;;;7.50;95.62
54978;BME280;40873;47.522;19.106;2022-11-24T12:27:28;99744.09;;;7.57;96.13
54978;BME280;40873;47.522;19.106;2022-11-24T12:30:04;99745.81;;;7.58;96.33
54978;BME280;40873;47.522;19.106;2022-11-24T12:47:18;99761.44;;;6.82;98.14
54978;BME280;40873;47.522;19.106;2022-11-24T12:52:36;99765.91;;;6.80;98.13
54978;BME280;40873;47.522;19.106;2022-11-24T12:55:13;99759.06;;;6.78;98.63
54978;BME280;40873;47.522;19.106;2022-11-24T13:00:25;99769.09;;;6.54;100.00
54978;BME280;40873;47.522;19.106;2022-11-24T13:06:01;99767.31;;;6.54;100.00
54978;BME280;40873;47.522;19.106;2022-11-24T13:08:29;99771.03;;;6.66;100.00
54978;BME280;40873;47.522;19.106;2022-11-24T13:14:03;99767.84;;;6.77;100.00
54978;BME280;40873;47.522;19.106;2022-11-24T13:16:32;99774.78;;;6.78;100.00
54978;BME280;40873;47.522;19.106;2022-11-24T13:19:39;99769.78;;;6.73;100.00
54978;BME280;40873;47.522;19.106;2022-11-24T13:24:37;99781.94;;;6.74;100.00
54978;BME280;40873;47.522;19.106;2022-11-24T13:29:45;99783.50;;;6.78;100.00
54978;BME280;40873;47.522;19.106;2022-11-24T13:37:43;99790.59;;;6.76;100.00
54978;BME280;40873;47.522;19.106;2022-11-24T14:06:54;99810.66;;;6.77;100.00
54978;BME280;40873;47.522;19.106;2022-11-24T14:11:59;99821.13;;;6.77;100.00
54978;BME280;40873;47.522;19.106;2022-11-24T14:14:27;99814.03;;;6.79;100.00
54978;BME280;40873;47.522;19.106;2022-11-24T14:19:41;99825.94;;;6.69;100.00
54978;BME280;40873;47.522;19.106;2022-11-24T14:22:14;99827.31;;;6.76;100.00
54978;BME280;40873;47.522;19.106;2022-11-24T14:24:54;99833.00;;;6.67;100.00
54978;BME280;40873;47.522;19.106;2022-11-24T14:27:30;99819.91;;;6.67;100.00
54978;BME280;40873;47.522;19.106;2022-11-24T14:30:19;99831.72;;;6.58;100.00
54978;BME280;40873;47.522;19.106;2022-11-24T14:33:00;99831.63;;;6.60;100.00
54978;BME280;40873;47.522;19.106;2022-11-24T14:35:29;99833.69;;;6.55;100.00
54978;BME280;40873;47.522;19.106;2022-11-24T14:38:00;99835.47;;;6.54;100.00
54978;BME280;40873;47.522;19.106;2022-11-24T14:46:06;99847.72;;;6.54;100.00
54978;BME280;40873;47.522;19.106;2022-11-24T14:48:36;99840.38;;;6.43;100.00
54978;BME280;40873;47.522;19.106;2022-11-24T14:53:41;99850.25;;;6.38;100.00
54978;BME280;40873;47.522;19.106;2022-11-24T14:56:33;99867.66;;;6.39;100.00
54978;BME280;40873;47.522;19.106;2022-11-24T14:59:01;99861.56;;;6.39;100.00
54978;BME280;40873;47.522;19.106;2022-11-24T15:01:31;99875.06;;;6.31;100.00
54978;BME280;40873;47.522;19.106;2022-11-24T15:12:41;99880.06;;;6.18;100.00
54978;BME280;40873;47.522;19.106;2022-11-24T15:20:39;99892.56;;;6.13;100.00
54978;BME280;40873;47.522;19.106;2022-11-24T15:23:19;99902.31;;;6.10;100.00
54978;BME280;40873;47.522;19.106;2022-11-24T15:25:46;99895.47;;;6.07;100.00